Time;durP1;ratioP1;P1;durP2;ratioP2;P2;SDS_P1;SDS_P2;PMS_P1;PMS_P2;Temp;Humidity;BMP_temperature;BMP_pressure;BME280_temperature;BME280_humidity;BME280_pressure;Samples;Min_cycle;Max_cycle;Signal;HPM_P1;HPM_P2
2022/09/24 00:01:52;;;;;;;;;;;13.80;99.90;;;;;;4969193;28;20284;-78
2022/09/24 00:04:18;;;;;;;;;;;13.80;99.90;;;;;;4970085;28;19926;-79
2022/09/24 00:06:45;;;;;;;;;;;13.90;99.90;;;;;;4968990;28;19993;-78
2022/09/24 00:09:12;;;;;;;;;;;13.80;99.90;;;;;;4969028;28;19926;-78
2022/09/24 00:11:38;;;;;;;;;;;13.80;99.90;;;;;;4969529;28;19950;-78
2022/09/24 00:14:05;;;;;;;;;;;13.90;99.90;;;;;;4968904;28;19926;-78
2022/09/24 00:16:32;;;;;;;;;;;13.90;99.90;;;;;;4969793;28;19969;-78
2022/09/24 00:18:58;;;;;;;;;;;13.80;99.90;;;;;;4970283;28;20381;-78
2022/09/24 00:21:25;;;;;;;;;;;13.90;99.90;;;;;;4969966;28;19922;-79
2022/09/24 00:23:52;;;;;;;;;;;13.80;99.90;;;;;;4969759;28;19926;-78
2022/09/24 00:29:02;;;;;;;;;;;13.90;99.90;;;;;;4967546;28;19981;-78
2022/09/24 00:31:28;;;;;;;;;;;13.80;99.90;;;;;;4970170;28;19926;-78
2022/09/24 00:33:53;;;;;;;;;;;13.90;99.90;;;;;;4969378;28;19949;-79
2022/09/24 00:36:19;;;;;;;;;;;13.90;99.90;;;;;;4968900;28;20381;-78
2022/09/24 00:38:48;;;;;;;;;;;13.80;99.90;;;;;;4969507;28;20348;-78
2022/09/24 00:41:13;;;;;;;;;;;13.90;99.90;;;;;;4969657;28;19934;-78
2022/09/24 00:43:38;;;;;;;;;;;13.90;99.90;;;;;;4968438;28;20332;-78
2022/09/24 00:46:13;;;;;;;;;;;13.90;99.90;;;;;;4969635;28;19930;-78
2022/09/24 00:48:40;;;;;;;;;;;13.90;99.90;;;;;;4969514;28;19926;-78
2022/09/24 00:51:06;;;;;;;;;;;13.90;99.90;;;;;;4969717;28;19966;-78
2022/09/24 00:53:33;;;;;;;;;;;13.90;99.90;;;;;;4969268;28;20399;-78
2022/09/24 00:56:00;;;;;;;;;;;13.90;99.90;;;;;;4969952;28;19977;-78
2022/09/24 00:58:26;;;;;;;;;;;13.90;99.90;;;;;;4968648;28;19973;-78
2022/09/24 01:00:56;;;;;;;;;;;13.90;99.90;;;;;;4968717;28;19932;-78
2022/09/24 01:03:22;;;;;;;;;;;13.90;99.90;;;;;;4969505;28;20305;-78
2022/09/24 01:05:48;;;;;;;;;;;13.90;99.90;;;;;;5056814;23;19930;-78
2022/09/24 01:08:14;;;;;;;;;;;13.90;99.90;;;;;;4988629;28;20354;-78
2022/09/24 01:11:03;;;;;;;;;;;13.90;99.90;;;;;;4988130;28;19926;-79
2022/09/24 01:13:28;;;;;;;;;;;13.90;99.90;;;;;;4986452;28;20280;-80
2022/09/24 01:15:58;;;;;;;;;;;13.90;99.90;;;;;;4988334;28;19933;-79
2022/09/24 01:18:34;;;;;;;;;;;13.90;99.90;;;;;;4988329;28;19922;-79
2022/09/24 01:21:07;;;;;;;;;;;13.90;99.90;;;;;;5003492;28;20490;-79
2022/09/24 01:23:39;;;;;;;;;;;13.90;99.90;;;;;;4987886;28;20052;-79
2022/09/24 01:26:23;;;;;;;;;;;13.90;99.90;;;;;;4970515;28;19995;-79
2022/09/24 01:29:04;;;;;;;;;;;13.90;99.90;;;;;;4986643;28;20407;-79
2022/09/24 01:31:45;;;;;;;;;;;13.90;99.90;;;;;;4986642;28;19930;-79
2022/09/24 01:34:14;;;;;;;;;;;14.00;99.90;;;;;;4986813;28;19926;-78
2022/09/24 01:36:41;;;;;;;;;;;14.00;99.90;;;;;;4988060;28;20339;-79
2022/09/24 01:39:07;;;;;;;;;;;14.00;99.90;;;;;;4987998;28;19926;-79
2022/09/24 01:41:33;;;;;;;;;;;14.00;99.90;;;;;;4988009;28;19998;-78
2022/09/24 01:43:59;;;;;;;;;;;14.10;99.90;;;;;;4987273;28;19929;-78
2022/09/24 01:46:25;;;;;;;;;;;14.00;99.90;;;;;;4987905;28;19933;-78
2022/09/24 01:48:50;;;;;;;;;;;14.00;99.90;;;;;;4987593;28;20067;-78
2022/09/24 01:51:22;;;;;;;;;;;14.00;99.90;;;;;;4988225;28;20012;-79
2022/09/24 01:53:56;;;;;;;;;;;14.00;99.90;;;;;;4987341;28;19929;-79
2022/09/24 01:56:29;;;;;;;;;;;14.00;99.90;;;;;;4987840;28;20253;-79
2022/09/24 01:59:00;;;;;;;;;;;14.00;99.90;;;;;;4987366;28;19949;-80
2022/09/24 02:01:32;;;;;;;;;;;14.00;99.90;;;;;;4988387;28;19941;-79
2022/09/24 02:04:00;;;;;;;;;;;14.00;99.90;;;;;;4988002;28;19971;-79
2022/09/24 02:06:32;;;;;;;;;;;14.00;99.90;;;;;;4987624;28;19933;-79
2022/09/24 02:08:58;;;;;;;;;;;13.90;99.90;;;;;;4986729;28;20061;-79
2022/09/24 02:11:24;;;;;;;;;;;13.90;99.90;;;;;;4986749;28;19929;-80
2022/09/24 02:14:03;;;;;;;;;;;13.90;99.90;;;;;;4986179;28;19987;-79
2022/09/24 02:16:31;;;;;;;;;;;13.90;99.90;;;;;;4987704;28;19926;-80
2022/09/24 02:18:59;;;;;;;;;;;13.90;99.90;;;;;;4986798;28;19926;-79
2022/09/24 02:21:25;;;;;;;;;;;13.80;99.90;;;;;;4988121;28;19925;-80
2022/09/24 02:23:54;;;;;;;;;;;13.80;99.90;;;;;;4987646;28;19929;-79
2022/09/24 02:26:20;;;;;;;;;;;13.80;99.90;;;;;;5002204;28;20439;-80
2022/09/24 02:28:45;;;;;;;;;;;13.80;99.90;;;;;;4986547;28;19940;-79
2022/09/24 02:31:11;;;;;;;;;;;13.80;99.90;;;;;;4987458;28;19925;-80
2022/09/24 02:36:23;;;;;;;;;;;13.80;99.90;;;;;;4987344;28;20295;-79
2022/09/24 02:38:49;;;;;;;;;;;13.70;99.90;;;;;;5001876;28;19921;-79
2022/09/24 02:41:15;;;;;;;;;;;13.80;99.90;;;;;;4987580;28;19925;-79
2022/09/24 02:43:41;;;;;;;;;;;13.70;99.90;;;;;;4986112;28;19922;-80
2022/09/24 02:46:09;;;;;;;;;;;13.70;99.90;;;;;;4986234;28;19926;-79
2022/09/24 02:48:36;;;;;;;;;;;13.70;99.90;;;;;;5002944;28;19941;-79
2022/09/24 02:51:03;;;;;;;;;;;13.70;99.90;;;;;;4986976;28;19937;-79
2022/09/24 02:53:29;;;;;;;;;;;13.70;99.90;;;;;;4987665;28;19930;-79
2022/09/24 02:55:54;;;;;;;;;;;13.70;99.90;;;;;;4987047;28;20297;-80
2022/09/24 02:58:20;;;;;;;;;;;13.70;99.90;;;;;;5001448;28;19929;-79
2022/09/24 03:00:45;;;;;;;;;;;13.70;99.90;;;;;;4986603;28;20431;-80
2022/09/24 03:03:11;;;;;;;;;;;13.70;99.90;;;;;;4986989;28;19932;-79
2022/09/24 03:05:36;;;;;;;;;;;13.70;99.90;;;;;;4986461;28;19929;-79
2022/09/24 03:08:02;;;;;;;;;;;13.70;99.90;;;;;;4986911;28;19941;-80
2022/09/24 03:10:28;;;;;;;;;;;13.70;99.90;;;;;;4987227;28;19936;-80
2022/09/24 03:12:55;;;;;;;;;;;13.60;99.90;;;;;;4986599;28;19929;-79
2022/09/24 03:15:21;;;;;;;;;;;13.60;99.90;;;;;;4986606;28;19933;-79
2022/09/24 03:17:46;;;;;;;;;;;13.60;99.90;;;;;;4987325;28;19926;-80
2022/09/24 03:20:12;;;;;;;;;;;13.60;99.90;;;;;;4986899;28;20443;-80
2022/09/24 03:22:37;;;;;;;;;;;13.60;99.90;;;;;;4986784;28;19976;-80
2022/09/24 03:25:03;;;;;;;;;;;13.50;99.90;;;;;;4986942;28;19932;-79
2022/09/24 03:27:29;;;;;;;;;;;13.60;99.90;;;;;;4986092;28;20092;-80
2022/09/24 03:32:39;;;;;;;;;;;13.60;99.90;;;;;;4986091;28;19926;-80
2022/09/24 03:35:05;;;;;;;;;;;13.50;99.90;;;;;;4986242;28;20288;-80
2022/09/24 03:37:32;;;;;;;;;;;13.50;99.90;;;;;;4986926;28;20331;-80
2022/09/24 03:39:57;;;;;;;;;;;13.50;99.90;;;;;;4986887;28;19926;-79
2022/09/24 03:42:23;;;;;;;;;;;13.50;99.90;;;;;;4985771;28;19937;-79
2022/09/24 03:44:48;;;;;;;;;;;13.50;99.90;;;;;;4986203;28;19929;-80
2022/09/24 03:47:14;;;;;;;;;;;13.50;99.90;;;;;;4985880;28;20289;-80
2022/09/24 03:49:39;;;;;;;;;;;13.50;99.90;;;;;;4986021;28;20471;-80
2022/09/24 03:52:05;;;;;;;;;;;13.40;99.90;;;;;;4986409;28;20027;-79
2022/09/24 03:54:30;;;;;;;;;;;13.40;99.90;;;;;;4986351;28;19926;-80
2022/09/24 03:56:56;;;;;;;;;;;13.40;99.90;;;;;;4987617;28;19925;-80
2022/09/24 03:59:21;;;;;;;;;;;13.40;99.90;;;;;;4988965;28;19933;-79
2022/09/24 04:01:47;;;;;;;;;;;13.40;99.90;;;;;;4989594;28;20400;-80
2022/09/24 04:04:15;;;;;;;;;;;13.40;99.90;;;;;;4989840;28;19918;-80
2022/09/24 04:06:40;;;;;;;;;;;13.30;99.90;;;;;;4989858;28;20036;-80
2022/09/24 04:09:06;;;;;;;;;;;13.30;99.90;;;;;;4989952;28;20025;-80
2022/09/24 04:11:34;;;;;;;;;;;13.30;99.90;;;;;;4988557;28;20345;-80
2022/09/24 04:14:00;;;;;;;;;;;13.30;99.90;;;;;;4989543;28;20020;-82
2022/09/24 04:16:25;;;;;;;;;;;13.30;99.90;;;;;;4989065;28;19926;-80
2022/09/24 04:18:51;;;;;;;;;;;13.20;99.90;;;;;;4989301;28;20056;-79
2022/09/24 04:21:16;;;;;;;;;;;13.20;99.90;;;;;;4990270;28;19932;-79
2022/09/24 04:23:42;;;;;;;;;;;13.20;99.90;;;;;;4989546;28;19976;-80
2022/09/24 04:26:07;;;;;;;;;;;13.20;99.90;;;;;;4989589;28;19930;-81
2022/09/24 04:28:33;;;;;;;;;;;13.20;99.90;;;;;;5003747;28;19965;-80
2022/09/24 04:30:59;;;;;;;;;;;13.20;99.90;;;;;;4989740;28;19926;-79
2022/09/24 04:33:25;;;;;;;;;;;13.10;99.90;;;;;;4989445;28;19926;-81
2022/09/24 04:35:50;;;;;;;;;;;13.10;99.90;;;;;;4989341;28;19956;-80
2022/09/24 04:38:17;;;;;;;;;;;13.10;99.90;;;;;;4989747;28;19933;-79
2022/09/24 04:40:45;;;;;;;;;;;13.10;99.90;;;;;;4988443;28;19932;-79
2022/09/24 04:43:11;;;;;;;;;;;13.10;99.90;;;;;;4988552;28;19925;-79
2022/09/24 04:45:37;;;;;;;;;;;13.10;99.90;;;;;;4988817;28;20024;-79
2022/09/24 04:48:02;;;;;;;;;;;13.10;99.90;;;;;;4988907;28;19937;-79
2022/09/24 04:50:32;;;;;;;;;;;13.10;99.90;;;;;;4989127;28;19934;-80
2022/09/24 04:52:57;;;;;;;;;;;13.00;99.90;;;;;;4990165;28;19926;-80
2022/09/24 04:55:24;;;;;;;;;;;13.00;99.90;;;;;;4988898;28;19925;-79
2022/09/24 04:57:49;;;;;;;;;;;13.00;99.90;;;;;;4987994;28;20021;-79
2022/09/24 05:00:16;;;;;;;;;;;13.00;99.90;;;;;;4989472;28;20024;-79
2022/09/24 05:02:42;;;;;;;;;;;13.10;99.90;;;;;;4989557;28;19933;-80
2022/09/24 05:05:10;;;;;;;;;;;13.00;99.90;;;;;;4989135;28;19945;-79
2022/09/24 05:07:36;;;;;;;;;;;13.00;99.90;;;;;;4988198;28;19933;-80
2022/09/24 05:10:01;;;;;;;;;;;13.00;99.90;;;;;;4988418;28;19921;-80
2022/09/24 05:12:27;;;;;;;;;;;13.00;99.90;;;;;;4987804;28;20012;-79
2022/09/24 05:14:54;;;;;;;;;;;13.00;99.90;;;;;;4988199;28;21299;-79
2022/09/24 05:17:20;;;;;;;;;;;13.00;99.90;;;;;;4988793;28;20388;-80
2022/09/24 05:19:46;;;;;;;;;;;13.00;99.90;;;;;;4988749;28;19926;-80
2022/09/24 05:22:11;;;;;;;;;;;13.00;99.90;;;;;;4989077;28;20016;-79
2022/09/24 05:24:37;;;;;;;;;;;12.90;99.90;;;;;;4987954;28;19926;-80
2022/09/24 05:27:08;;;;;;;;;;;12.90;99.90;;;;;;4987448;28;19925;-79
2022/09/24 05:29:36;;;;;;;;;;;12.90;99.90;;;;;;4988580;28;19932;-79
2022/09/24 05:32:12;;;;;;;;;;;13.00;99.90;;;;;;4987045;28;19926;-79
2022/09/24 05:34:37;;;;;;;;;;;12.90;99.90;;;;;;4988017;28;19936;-79
2022/09/24 05:37:03;;;;;;;;;;;12.90;99.90;;;;;;4988137;28;20371;-80
2022/09/24 05:39:29;;;;;;;;;;;12.90;99.90;;;;;;4988307;28;19926;-79
2022/09/24 05:41:55;;;;;;;;;;;12.90;99.90;;;;;;4987744;28;19926;-81
2022/09/24 05:44:21;;;;;;;;;;;12.90;99.90;;;;;;4988776;28;19979;-79
2022/09/24 05:46:47;;;;;;;;;;;12.90;99.90;;;;;;4987765;28;19965;-80
2022/09/24 05:49:13;;;;;;;;;;;12.90;99.90;;;;;;4987171;28;20379;-80
2022/09/24 05:51:38;;;;;;;;;;;12.90;99.90;;;;;;4986240;28;19926;-80
2022/09/24 05:54:04;;;;;;;;;;;12.90;99.90;;;;;;4987199;28;19926;-79
2022/09/24 05:56:30;;;;;;;;;;;13.00;99.90;;;;;;4986554;28;19926;-81
2022/09/24 05:58:55;;;;;;;;;;;13.00;99.90;;;;;;4987950;28;19925;-79
2022/09/24 06:01:21;;;;;;;;;;;13.00;99.90;;;;;;4987285;28;19979;-80
2022/09/24 06:03:46;;;;;;;;;;;13.00;99.90;;;;;;4986520;28;19996;-80
2022/09/24 06:06:12;;;;;;;;;;;13.00;99.90;;;;;;4987544;28;19981;-79
2022/09/24 06:08:37;;;;;;;;;;;13.00;99.90;;;;;;4986824;28;20384;-80
2022/09/24 06:11:04;;;;;;;;;;;13.10;99.90;;;;;;4986661;28;19925;-79
2022/09/24 06:13:30;;;;;;;;;;;13.10;99.90;;;;;;4987251;28;19926;-80
2022/09/24 06:15:59;;;;;;;;;;;13.10;99.90;;;;;;4987266;28;19926;-79
2022/09/24 06:18:24;;;;;;;;;;;13.10;99.90;;;;;;4970160;28;20001;-80
2022/09/24 06:20:50;;;;;;;;;;;13.10;99.90;;;;;;4986743;28;20016;-80
2022/09/24 06:23:15;;;;;;;;;;;13.20;99.90;;;;;;4987187;28;19932;-80
2022/09/24 06:25:41;;;;;;;;;;;13.20;99.90;;;;;;4986441;28;19996;-80
2022/09/24 06:28:07;;;;;;;;;;;13.20;99.90;;;;;;4986213;28;19930;-80
2022/09/24 06:30:34;;;;;;;;;;;13.20;99.90;;;;;;4986125;28;19930;-80
2022/09/24 06:33:04;;;;;;;;;;;13.20;99.90;;;;;;4985899;28;19932;-80
2022/09/24 06:35:30;;;;;;;;;;;13.20;99.90;;;;;;4986646;28;20408;-81
2022/09/24 06:37:56;;;;;;;;;;;13.30;99.90;;;;;;4985518;28;20442;-80
2022/09/24 06:40:24;;;;;;;;;;;13.30;99.90;;;;;;4986440;28;19929;-81
2022/09/24 06:42:51;;;;;;;;;;;13.30;99.90;;;;;;4984593;28;20407;-80
2022/09/24 06:45:17;;;;;;;;;;;13.30;99.90;;;;;;4985059;28;19972;-80
2022/09/24 06:47:42;;;;;;;;;;;13.30;99.90;;;;;;4984847;28;19930;-80
2022/09/24 06:50:08;;;;;;;;;;;13.40;99.90;;;;;;4986800;28;19926;-80
2022/09/24 06:52:34;;;;;;;;;;;13.40;99.90;;;;;;4986511;28;19933;-80
2022/09/24 06:54:59;;;;;;;;;;;13.40;99.90;;;;;;4986437;28;19956;-82
2022/09/24 06:57:25;;;;;;;;;;;13.40;99.90;;;;;;4986039;28;19988;-81
2022/09/24 06:59:51;;;;;;;;;;;13.40;99.90;;;;;;4986527;28;20591;-82
2022/09/24 07:02:16;;;;;;;;;;;13.40;99.90;;;;;;4986326;28;20402;-80
2022/09/24 07:04:42;;;;;;;;;;;13.40;99.90;;;;;;4986401;28;20386;-81
2022/09/24 07:09:52;;;;;;;;;;;13.50;99.90;;;;;;4985735;28;19941;-80
2022/09/24 07:12:17;;;;;;;;;;;13.50;99.90;;;;;;4985168;28;19929;-82
2022/09/24 07:14:43;;;;;;;;;;;13.50;99.90;;;;;;4986122;28;20384;-81
2022/09/24 07:17:08;;;;;;;;;;;13.50;99.90;;;;;;4984328;28;19925;-81
2022/09/24 07:19:34;;;;;;;;;;;13.50;99.90;;;;;;4984608;28;19926;-80
2022/09/24 07:21:59;;;;;;;;;;;13.50;99.90;;;;;;4986267;28;19929;-82
2022/09/24 07:24:25;;;;;;;;;;;13.50;99.90;;;;;;4986631;28;19950;-79
2022/09/24 07:26:51;;;;;;;;;;;13.50;99.90;;;;;;4985034;28;19926;-81
2022/09/24 07:29:17;;;;;;;;;;;13.50;99.90;;;;;;4986421;28;20475;-80
2022/09/24 07:31:42;;;;;;;;;;;13.50;99.90;;;;;;4987390;28;19928;-81
2022/09/24 07:34:08;;;;;;;;;;;13.60;99.90;;;;;;4990486;28;19936;-80
2022/09/24 07:36:33;;;;;;;;;;;13.60;99.90;;;;;;4989817;28;19933;-81
2022/09/24 07:39:00;;;;;;;;;;;13.60;99.90;;;;;;4990492;28;20539;-80
2022/09/24 07:41:26;;;;;;;;;;;13.50;99.90;;;;;;4989499;28;19969;-81
2022/09/24 07:43:54;;;;;;;;;;;13.60;99.90;;;;;;4989742;28;20003;-81
2022/09/24 07:46:20;;;;;;;;;;;13.60;99.90;;;;;;4989908;28;20210;-81
2022/09/24 07:48:47;;;;;;;;;;;13.50;99.90;;;;;;4989707;28;20353;-80
2022/09/24 07:51:12;;;;;;;;;;;13.50;99.90;;;;;;4989474;28;19967;-81
2022/09/24 07:53:38;;;;;;;;;;;13.60;99.90;;;;;;4989392;28;19930;-80
2022/09/24 07:56:03;;;;;;;;;;;13.50;99.90;;;;;;4988836;28;19925;-82
2022/09/24 07:58:29;;;;;;;;;;;13.50;99.90;;;;;;4990100;28;19973;-82
2022/09/24 08:00:59;;;;;;;;;;;13.60;99.90;;;;;;4987233;28;20311;-82
2022/09/24 08:03:25;;;;;;;;;;;13.60;99.90;;;;;;4988867;28;19941;-81
2022/09/24 08:05:50;;;;;;;;;;;13.60;99.90;;;;;;4986046;28;19925;-82
2022/09/24 08:08:19;;;;;;;;;;;13.60;99.90;;;;;;4988581;28;19930;-80
2022/09/24 08:10:44;;;;;;;;;;;13.70;99.90;;;;;;4989236;28;20009;-82
2022/09/24 08:13:10;;;;;;;;;;;13.70;99.90;;;;;;4994292;28;20403;-80
2022/09/24 08:15:35;;;;;;;;;;;13.60;99.90;;;;;;4996768;28;20285;-81
2022/09/24 08:18:04;;;;;;;;;;;13.70;99.90;;;;;;5001769;28;19955;-81
2022/09/24 08:20:34;;;;;;;;;;;13.70;99.90;;;;;;4995805;28;20343;-81
2022/09/24 08:23:01;;;;;;;;;;;13.70;99.90;;;;;;4988717;28;19938;-80
2022/09/24 08:25:26;;;;;;;;;;;13.70;99.90;;;;;;4987752;28;19949;-82
2022/09/24 08:27:52;;;;;;;;;;;13.80;99.90;;;;;;4988086;28;19933;-81
2022/09/24 08:30:18;;;;;;;;;;;13.80;99.90;;;;;;4990015;28;19929;-78
2022/09/24 08:32:49;;;;;;;;;;;13.80;99.90;;;;;;4989816;28;19930;-79
2022/09/24 08:35:15;;;;;;;;;;;13.90;99.90;;;;;;4988375;28;19926;-79
2022/09/24 08:37:40;;;;;;;;;;;13.90;99.90;;;;;;4988807;28;19922;-80
2022/09/24 08:40:12;;;;;;;;;;;14.00;99.90;;;;;;4988222;28;19979;-78
2022/09/24 08:42:58;;;;;;;;;;;14.00;99.90;;;;;;4985924;28;20348;-79
2022/09/24 08:48:20;;;;;;;;;;;14.20;99.90;;;;;;4987811;28;20245;-78
2022/09/24 08:50:59;;;;;;;;;;;14.20;99.90;;;;;;4989323;28;19996;-80
2022/09/24 08:53:32;;;;;;;;;;;14.20;99.90;;;;;;4990796;28;20087;-80
2022/09/24 08:55:59;;;;;;;;;;;14.20;99.90;;;;;;4993505;28;20352;-79
2022/09/24 08:58:27;;;;;;;;;;;14.20;99.90;;;;;;4987794;28;20028;-79
2022/09/24 09:00:57;;;;;;;;;;;14.20;99.90;;;;;;4985770;28;19957;-79
2022/09/24 09:03:29;;;;;;;;;;;14.20;99.90;;;;;;4987628;28;19929;-80
2022/09/24 09:06:03;;;;;;;;;;;14.20;99.90;;;;;;4987808;28;19956;-78
2022/09/24 09:08:47;;;;;;;;;;;14.30;99.90;;;;;;4988404;28;20427;-79
2022/09/24 09:11:15;;;;;;;;;;;14.30;99.90;;;;;;4986340;28;20214;-81
2022/09/24 09:13:44;;;;;;;;;;;14.30;99.90;;;;;;4987759;28;19926;-82
2022/09/24 09:16:21;;;;;;;;;;;14.30;99.90;;;;;;4978621;28;20024;-77
2022/09/24 09:18:47;;;;;;;;;;;14.40;99.90;;;;;;4987477;28;19930;-87
2022/09/24 09:21:33;;;;;;;;;;;14.40;99.90;;;;;;4986553;28;19922;-77
2022/09/24 09:24:00;;;;;;;;;;;14.50;99.90;;;;;;4971786;28;19926;-79
2022/09/24 09:26:26;;;;;;;;;;;14.50;99.90;;;;;;5002516;28;19929;-88
2022/09/24 09:28:54;;;;;;;;;;;14.60;99.90;;;;;;4985052;28;20287;-83
2022/09/24 09:31:29;;;;;;;;;;;14.60;99.90;;;;;;4985992;28;19930;-79
2022/09/24 09:33:59;;;;;;;;;;;14.70;99.90;;;;;;4986387;28;19934;-80
2022/09/24 09:36:44;;;;;;;;;;;14.70;99.90;;;;;;4986723;28;19945;-85
2022/09/24 09:39:21;;;;;;;;;;;14.70;99.90;;;;;;4987807;28;19981;-83
2022/09/24 09:41:51;;;;;;;;;;;14.80;99.90;;;;;;4986210;28;19922;-88
2022/09/24 09:44:28;;;;;;;;;;;14.80;99.90;;;;;;4998824;28;19971;-84
2022/09/24 09:47:02;;;;;;;;;;;14.80;99.90;;;;;;4993862;28;19923;-79
2022/09/24 09:49:32;;;;;;;;;;;14.90;99.90;;;;;;4986661;28;19933;-85
2022/09/24 09:52:01;;;;;;;;;;;14.90;99.90;;;;;;4987554;28;19926;-85
2022/09/24 09:54:36;;;;;;;;;;;14.90;99.90;;;;;;4988141;28;20024;-85
2022/09/24 09:57:02;;;;;;;;;;;14.90;99.90;;;;;;4987217;28;19926;-84
2022/09/24 09:59:29;;;;;;;;;;;14.90;99.90;;;;;;4986799;28;19960;-85
2022/09/24 10:01:56;;;;;;;;;;;14.90;99.90;;;;;;4985221;28;19929;-83
2022/09/24 10:04:34;;;;;;;;;;;14.90;99.90;;;;;;4983193;28;20324;-86
2022/09/24 10:07:16;;;;;;;;;;;14.90;99.90;;;;;;4989002;28;19926;-83
2022/09/24 10:09:42;;;;;;;;;;;15.00;99.90;;;;;;5001790;28;19926;-85
2022/09/24 10:12:08;;;;;;;;;;;15.00;99.90;;;;;;4984344;28;19930;-86
2022/09/24 10:14:33;;;;;;;;;;;15.00;99.90;;;;;;4986876;28;19926;-86
2022/09/24 10:17:04;;;;;;;;;;;15.00;99.90;;;;;;4986914;28;20452;-82
2022/09/24 10:19:31;;;;;;;;;;;15.00;99.90;;;;;;4985506;28;20395;-86
2022/09/24 10:21:57;;;;;;;;;;;15.10;99.90;;;;;;4987985;28;19926;-81
2022/09/24 10:24:24;;;;;;;;;;;15.10;99.90;;;;;;4987013;28;19932;-85
2022/09/24 10:26:50;;;;;;;;;;;15.10;99.90;;;;;;4985242;28;20339;-86
2022/09/24 10:32:03;;;;;;;;;;;15.10;99.90;;;;;;4986824;28;20363;-87
2022/09/24 10:34:30;;;;;;;;;;;15.10;99.90;;;;;;4988321;28;19926;-87
2022/09/24 10:37:01;;;;;;;;;;;15.10;99.90;;;;;;4986374;28;19932;-87
2022/09/24 10:39:26;;;;;;;;;;;15.10;99.90;;;;;;4986616;28;20399;-81
2022/09/24 10:41:54;;;;;;;;;;;15.10;99.90;;;;;;5001369;28;19933;-82
2022/09/24 10:44:20;;;;;;;;;;;15.20;99.90;;;;;;4984436;28;19936;-83
2022/09/24 10:47:04;;;;;;;;;;;15.20;99.90;;;;;;4975703;28;19934;-81
2022/09/24 10:49:42;;;;;;;;;;;15.20;99.90;;;;;;4979151;28;19926;-80
2022/09/24 10:52:26;;;;;;;;;;;15.20;99.90;;;;;;4988399;28;19930;-83
2022/09/24 10:54:53;;;;;;;;;;;15.20;99.90;;;;;;4979427;28;19926;-81
2022/09/24 10:57:27;;;;;;;;;;;15.20;99.90;;;;;;4977496;28;20012;-83
2022/09/24 11:00:22;;;;;;;;;;;15.30;99.90;;;;;;4989371;28;19973;-83
2022/09/24 11:02:59;;;;;;;;;;;15.40;99.90;;;;;;4977838;28;20473;-82
2022/09/24 11:05:30;;;;;;;;;;;15.40;99.90;;;;;;4996443;28;19933;-82
2022/09/24 11:08:01;;;;;;;;;;;15.40;99.90;;;;;;5002631;28;19953;-81
2022/09/24 11:10:27;;;;;;;;;;;15.30;99.90;;;;;;4989113;28;19961;-82
2022/09/24 11:13:12;;;;;;;;;;;15.30;99.90;;;;;;4997178;28;19955;-82
2022/09/24 11:15:57;;;;;;;;;;;15.30;99.90;;;;;;4989452;28;19932;-83
2022/09/24 11:18:44;;;;;;;;;;;15.40;99.90;;;;;;4989169;28;19926;-83
2022/09/24 11:21:10;;;;;;;;;;;15.40;99.90;;;;;;4989339;28;19925;-83
2022/09/24 11:23:38;;;;;;;;;;;15.40;99.90;;;;;;4988901;28;19925;-83
2022/09/24 11:26:07;;;;;;;;;;;15.40;99.90;;;;;;4989584;28;19932;-81
2022/09/24 11:28:51;;;;;;;;;;;15.40;99.90;;;;;;5000796;28;19937;-81
2022/09/24 11:31:29;;;;;;;;;;;15.50;99.90;;;;;;4988478;28;20024;-81
2022/09/24 11:34:13;;;;;;;;;;;15.50;99.90;;;;;;4987583;28;19926;-82
2022/09/24 11:36:38;;;;;;;;;;;15.40;99.90;;;;;;4988273;28;19926;-80
2022/09/24 11:39:04;;;;;;;;;;;15.50;99.90;;;;;;4989046;28;20563;-81
2022/09/24 11:41:34;;;;;;;;;;;15.50;99.90;;;;;;4986084;28;19949;-81
2022/09/24 11:44:05;;;;;;;;;;;15.60;99.90;;;;;;4991779;28;19929;-80
2022/09/24 11:46:53;;;;;;;;;;;15.50;99.90;;;;;;4989506;28;19926;-80
2022/09/24 11:49:25;;;;;;;;;;;15.60;99.90;;;;;;4994775;28;19926;-83
2022/09/24 11:51:51;;;;;;;;;;;15.50;99.90;;;;;;4996519;28;19929;-82
2022/09/24 11:54:23;;;;;;;;;;;15.50;99.90;;;;;;5001044;28;19926;-82
2022/09/24 11:56:52;;;;;;;;;;;15.50;99.90;;;;;;4992758;28;19926;-84
2022/09/24 11:59:32;;;;;;;;;;;15.50;99.90;;;;;;4988400;28;19929;-83
2022/09/24 12:02:01;;;;;;;;;;;15.50;99.90;;;;;;4988323;28;20016;-83
2022/09/24 12:04:30;;;;;;;;;;;15.50;99.90;;;;;;4989460;28;19926;-84
2022/09/24 12:07:03;;;;;;;;;;;15.50;99.90;;;;;;4989807;28;19926;-83
2022/09/24 12:09:32;;;;;;;;;;;15.50;99.90;;;;;;4987897;28;20273;-81
2022/09/24 12:12:06;;;;;;;;;;;15.50;99.90;;;;;;4987312;28;19932;-83
2022/09/24 12:14:42;;;;;;;;;;;15.50;99.90;;;;;;4988445;28;19930;-84
2022/09/24 12:17:09;;;;;;;;;;;15.50;99.90;;;;;;4980216;28;19973;-77
2022/09/24 12:19:50;;;;;;;;;;;15.40;99.90;;;;;;4988707;28;19932;-81
2022/09/24 12:22:17;;;;;;;;;;;15.40;99.90;;;;;;4993270;28;19950;-82
2022/09/24 12:24:49;;;;;;;;;;;15.40;99.90;;;;;;4988499;28;19926;-74
2022/09/24 12:27:41;;;;;;;;;;;15.40;99.90;;;;;;4988574;28;20333;-81
2022/09/24 12:33:17;;;;;;;;;;;15.50;99.90;;;;;;4980683;28;19952;-93
2022/09/24 12:35:54;;;;;;;;;;;15.50;99.90;;;;;;4997867;28;20021;-89
2022/09/24 12:38:25;;;;;;;;;;;15.40;99.90;;;;;;4972826;28;20596;-89
2022/09/24 12:40:50;;;;;;;;;;;15.40;99.90;;;;;;4987986;28;19925;-92
2022/09/24 12:43:24;;;;;;;;;;;15.40;99.90;;;;;;4988889;28;19933;-90
2022/09/24 12:45:54;;;;;;;;;;;15.40;99.90;;;;;;4987915;28;20700;-91
2022/09/24 12:48:23;;;;;;;;;;;15.40;99.90;;;;;;4972649;28;19929;-85
2022/09/24 12:50:55;;;;;;;;;;;15.50;99.90;;;;;;4988143;28;19926;-87
2022/09/24 12:53:23;;;;;;;;;;;15.50;99.90;;;;;;4988359;28;19969;-91
2022/09/24 12:55:49;;;;;;;;;;;15.40;99.90;;;;;;4988696;28;19925;-89
2022/09/24 12:58:29;;;;;;;;;;;15.40;99.90;;;;;;4989542;28;19933;-86
2022/09/24 13:01:12;;;;;;;;;;;15.40;99.90;;;;;;4989578;28;19926;-84
2022/09/24 13:03:38;;;;;;;;;;;15.40;99.90;;;;;;4987619;28;19936;-81
2022/09/24 13:06:19;;;;;;;;;;;15.50;99.90;;;;;;4988205;28;20005;-92
2022/09/24 13:08:44;;;;;;;;;;;15.50;99.90;;;;;;5004037;28;19932;-86
2022/09/24 13:11:28;;;;;;;;;;;15.50;99.90;;;;;;5002764;28;19996;-90
2022/09/24 13:14:04;;;;;;;;;;;15.50;99.90;;;;;;4986807;28;19925;-90
2022/09/24 13:16:31;;;;;;;;;;;15.50;99.90;;;;;;4986454;28;19932;-89
2022/09/24 13:19:01;;;;;;;;;;;15.50;99.90;;;;;;4988777;28;19926;-82
2022/09/24 13:21:28;;;;;;;;;;;15.50;99.90;;;;;;4988956;28;19933;-82
2022/09/24 13:23:54;;;;;;;;;;;15.50;99.90;;;;;;4988129;28;19926;-82
2022/09/24 13:26:20;;;;;;;;;;;15.40;99.90;;;;;;4986967;28;19929;-90
2022/09/24 13:28:57;;;;;;;;;;;15.50;99.90;;;;;;4969216;28;19926;-82
2022/09/24 13:31:25;;;;;;;;;;;15.50;99.90;;;;;;4987783;28;20394;-82
2022/09/24 13:33:53;;;;;;;;;;;15.50;99.90;;;;;;4987347;28;19926;-82
2022/09/24 13:36:28;;;;;;;;;;;15.50;99.90;;;;;;4986503;28;19930;-81
2022/09/24 13:38:56;;;;;;;;;;;15.50;99.90;;;;;;4984347;28;19921;-81
2022/09/24 13:41:44;;;;;;;;;;;15.50;99.90;;;;;;4986141;28;20086;-81
2022/09/24 13:44:13;;;;;;;;;;;15.40;99.90;;;;;;4986229;28;19921;-81
2022/09/24 13:46:41;;;;;;;;;;;15.40;99.90;;;;;;4987136;28;19932;-81
2022/09/24 13:49:10;;;;;;;;;;;15.30;99.90;;;;;;4987339;28;20012;-81
2022/09/24 13:51:37;;;;;;;;;;;15.40;99.90;;;;;;4987157;28;19932;-81
2022/09/24 13:54:12;;;;;;;;;;;15.40;99.90;;;;;;4987541;28;19926;-81
2022/09/24 13:56:37;;;;;;;;;;;15.40;99.90;;;;;;4984857;28;19934;-79
2022/09/24 13:59:10;;;;;;;;;;;15.40;99.90;;;;;;5000439;28;19922;-78
2022/09/24 14:01:40;;;;;;;;;;;15.40;99.90;;;;;;4983737;28;19926;-83
2022/09/24 14:04:21;;;;;;;;;;;15.50;99.90;;;;;;4987801;28;20007;-83
2022/09/24 14:06:54;;;;;;;;;;;15.50;99.90;;;;;;4989292;28;20404;-81
2022/09/24 14:09:22;;;;;;;;;;;15.50;99.90;;;;;;4990412;28;20422;-82
2022/09/24 14:11:49;;;;;;;;;;;15.40;99.90;;;;;;4985220;28;20391;-81
2022/09/24 14:14:17;;;;;;;;;;;15.40;99.90;;;;;;4985956;28;19930;-80
2022/09/24 14:16:42;;;;;;;;;;;15.40;99.90;;;;;;4986385;28;20013;-80
2022/09/24 14:19:12;;;;;;;;;;;15.40;99.90;;;;;;4987178;28;20080;-80
2022/09/24 14:21:44;;;;;;;;;;;15.40;99.90;;;;;;4985923;28;19929;-80
2022/09/24 14:24:17;;;;;;;;;;;15.40;99.90;;;;;;4987162;28;20289;-80
2022/09/24 14:26:46;;;;;;;;;;;15.40;99.90;;;;;;4985567;28;19952;-81
2022/09/24 14:29:14;;;;;;;;;;;15.40;99.90;;;;;;4987127;28;20031;-80
2022/09/24 14:31:50;;;;;;;;;;;15.40;99.90;;;;;;4986550;28;19932;-81
2022/09/24 14:34:36;;;;;;;;;;;15.40;99.90;;;;;;4989114;28;19933;-81
2022/09/24 14:37:16;;;;;;;;;;;15.40;99.90;;;;;;4986755;28;19952;-81
2022/09/24 14:39:43;;;;;;;;;;;15.40;99.90;;;;;;4997124;28;19933;-81
2022/09/24 14:42:11;;;;;;;;;;;15.40;99.90;;;;;;4995734;28;20015;-81
2022/09/24 14:44:37;;;;;;;;;;;15.40;99.90;;;;;;4985609;28;20068;-80
2022/09/24 14:47:02;;;;;;;;;;;15.50;99.90;;;;;;4984100;28;20012;-81